Time;durP1;ratioP1;P1;durP2;ratioP2;P2;SDS_P1;SDS_P2;PMS_P1;PMS_P2;Temp;Humidity;BMP_temperature;BMP_pressure;BME280_temperature;BME280_humidity;BME280_pressure;Samples;Min_cycle;Max_cycle;Signal;HPM_P1;HPM_P2
2022/08/29 00:01:20;;;;;;;6.55;1.88;;;16.90;99.90;;;;;;5090363;28;20044;-85
2022/08/29 00:03:46;;;;;;;8.68;2.35;;;16.90;99.90;;;;;;5090758;28;20036;-86
2022/08/29 00:06:12;;;;;;;8.20;2.17;;;16.90;99.90;;;;;;5089948;28;20047;-86
2022/08/29 00:08:38;;;;;;;7.47;2.15;;;16.90;99.90;;;;;;5074291;28;20130;-86
2022/08/29 00:11:06;;;;;;;7.63;1.98;;;16.90;99.90;;;;;;5107628;28;20039;-86
2022/08/29 00:13:33;;;;;;;6.88;2.13;;;16.90;99.90;;;;;;5107464;28;20044;-86
2022/08/29 00:15:59;;;;;;;7.78;2.63;;;16.90;99.90;;;;;;5107433;28;20058;-86
2022/08/29 00:18:25;;;;;;;5.35;2.17;;;17.10;99.90;;;;;;5089915;28;20039;-86
2022/08/29 00:20:51;;;;;;;5.80;1.92;;;16.90;99.90;;;;;;5073656;28;20122;-86
2022/08/29 00:23:17;;;;;;;6.00;2.03;;;16.90;99.90;;;;;;5090340;28;20131;-86
2022/08/29 00:25:43;;;;;;;3.63;1.58;;;16.90;99.90;;;;;;5107663;28;20040;-86
2022/08/29 00:28:09;;;;;;;8.68;2.67;;;16.90;99.90;;;;;;5089884;28;20092;-86
2022/08/29 00:30:35;;;;;;;13.25;2.33;;;16.90;99.90;;;;;;5107243;28;20042;-86
2022/08/29 00:33:01;;;;;;;10.18;2.80;;;17.90;99.90;;;;;;5107936;28;20051;-86
2022/08/29 00:35:33;;;;;;;4.80;1.88;;;16.90;99.90;;;;;;5077113;28;20114;-87
2022/08/29 00:37:59;;;;;;;10.50;2.30;;;16.90;99.90;;;;;;5094524;28;20040;-86
2022/08/29 00:40:29;;;;;;;15.80;2.05;;;16.90;99.90;;;;;;5110953;28;20297;-86
2022/08/29 00:42:55;;;;;;;4.15;1.90;;;18.00;99.90;;;;;;5094410;28;20056;-86
2022/08/29 00:45:21;;;;;;;8.15;2.03;;;16.90;99.90;;;;;;5077120;28;20421;-86
2022/08/29 00:47:57;;;;;;;9.23;1.85;;;16.80;99.90;;;;;;5094105;28;20047;-86
2022/08/29 00:50:31;;;;;;;8.27;2.00;;;16.90;99.90;;;;;;5094842;28;20048;-86
2022/08/29 00:52:59;;;;;;;8.57;1.90;;;16.90;99.90;;;;;;5093808;28;20069;-86
2022/08/29 00:55:30;;;;;;;4.55;1.60;;;16.80;99.90;;;;;;5111301;28;20126;-86
2022/08/29 00:58:02;;;;;;;9.75;1.40;;;17.30;99.90;;;;;;5093682;28;20036;-86
2022/08/29 01:00:28;;;;;;;10.40;2.05;;;16.80;99.90;;;;;;5111423;28;20094;-86
2022/08/29 01:02:54;;;;;;;4.60;1.70;;;16.90;99.90;;;;;;5093921;28;20075;-86
2022/08/29 01:05:20;;;;;;;5.97;2.03;;;17.80;99.90;;;;;;5093612;28;20031;-86
2022/08/29 01:07:47;;;;;;;4.93;1.65;;;16.80;99.90;;;;;;5077696;28;20157;-87
2022/08/29 01:12:14;;;;;;;8.32;1.77;;;17.20;99.90;;;;;;5093869;28;20398;-88
2022/08/29 01:13:01;;;;;;;8.27;1.85;;;16.90;99.90;;;;;;5098242;28;20151;-89
2022/08/29 01:15:29;;;;;;;4.43;1.38;;;17.50;99.90;;;;;;5093940;28;20044;-88
2022/08/29 01:17:56;;;;;;;5.63;1.73;;;16.90;99.90;;;;;;5094165;28;20039;-88
2022/08/29 01:20:53;;;;;;;6.78;1.52;;;17.00;99.90;;;;;;5078184;28;20447;-88
2022/08/29 01:23:27;;;;;;;6.97;1.50;;;16.90;99.90;;;;;;5092674;28;20480;-88
2022/08/29 01:25:54;;;;;;;4.00;1.00;;;16.90;99.90;;;;;;5111311;28;20371;-88
2022/08/29 01:28:31;;;;;;;8.23;1.35;;;16.90;99.90;;;;;;5092937;28;20510;-88
2022/08/29 01:31:19;;;;;;;3.47;1.27;;;16.80;99.90;;;;;;5093376;28;20046;-87
2022/08/29 01:33:47;;;;;;;7.13;1.15;;;17.30;99.90;;;;;;5093028;28;20375;-87
2022/08/29 01:36:23;;;;;;;3.67;1.17;;;17.50;99.90;;;;;;5092592;28;20130;-88
2022/08/29 01:38:49;;;;;;;8.95;1.33;;;17.90;99.90;;;;;;5092832;28;20043;-88
2022/08/29 01:41:17;;;;;;;7.60;1.15;;;16.80;99.90;;;;;;5091769;28;20061;-87
2022/08/29 01:43:45;;;;;;;4.15;0.95;;;16.80;99.90;;;;;;5108961;28;20200;-88
2022/08/29 01:46:13;;;;;;;8.38;1.33;;;16.80;99.90;;;;;;5092435;28;20047;-88
2022/08/29 01:48:42;;;;;;;8.63;1.42;;;16.80;99.90;;;;;;5109116;28;20046;-87
2022/08/29 01:51:08;;;;;;;4.80;1.45;;;16.80;99.90;;;;;;5109213;28;20126;-88
2022/08/29 01:53:34;;;;;;;7.18;1.17;;;16.80;99.90;;;;;;5075452;28;20439;-87
2022/08/29 01:56:18;;;;;;;4.28;1.17;;;16.80;99.90;;;;;;5076865;28;20378;-88
2022/08/29 01:58:48;;;;;;;6.95;1.42;;;16.80;99.90;;;;;;5092586;28;20343;-88
2022/08/29 02:01:21;;;;;;;4.03;1.45;;;16.80;99.90;;;;;;5109371;28;20043;-88
2022/08/29 02:03:47;;;;;;;7.10;1.55;;;16.80;99.90;;;;;;5092026;28;20044;-88
2022/08/29 02:06:12;;;;;;;6.65;1.50;;;17.30;99.90;;;;;;5075186;28;20040;-88
2022/08/29 02:08:40;;;;;;;4.55;1.10;;;16.80;99.90;;;;;;5075992;28;20047;-88
2022/08/29 02:11:10;;;;;;;10.27;1.90;;;16.80;99.90;;;;;;5108462;28;20036;-88
2022/08/29 02:13:45;;;;;;;8.30;1.67;;;17.00;99.90;;;;;;5075414;28;20036;-88
2022/08/29 02:16:12;;;;;;;10.27;1.35;;;16.90;99.90;;;;;;5108544;28;20047;-87
2022/08/29 02:18:39;;;;;;;14.40;1.83;;;16.80;99.90;;;;;;5091621;28;20085;-87
2022/08/29 02:21:05;;;;;;;4.85;1.52;;;16.90;99.90;;;;;;5091493;28;20131;-86
2022/08/29 02:23:33;;;;;;;7.47;1.48;;;16.80;99.90;;;;;;5091359;28;20118;-87
2022/08/29 02:25:59;;;;;;;4.60;1.42;;;17.30;99.90;;;;;;5091867;28;20043;-88
2022/08/29 02:28:24;;;;;;;12.48;1.63;;;16.80;99.90;;;;;;5091226;28;20050;-88
2022/08/29 02:30:52;;;;;;;9.45;2.03;;;16.80;99.90;;;;;;5074625;28;20039;-87
2022/08/29 02:33:20;;;;;;;7.85;1.75;;;16.80;99.90;;;;;;5107481;28;20043;-87
2022/08/29 02:35:47;;;;;;;7.13;1.33;;;16.80;99.90;;;;;;5091259;28;20462;-87
2022/08/29 02:38:14;;;;;;;6.88;1.73;;;16.70;99.90;;;;;;5109466;28;20123;-87
2022/08/29 02:40:40;;;;;;;10.00;2.20;;;17.30;99.90;;;;;;5107441;28;20047;-86
2022/08/29 02:43:06;;;;;;;9.30;1.60;;;16.80;99.90;;;;;;5091451;28;20131;-87
2022/08/29 02:45:36;;;;;;;8.68;1.50;;;16.70;99.90;;;;;;5090866;28;20039;-87
2022/08/29 02:48:02;;;;;;;10.27;1.80;;;16.70;99.90;;;;;;5075303;28;20039;-86
2022/08/29 02:50:29;;;;;;;7.63;1.70;;;16.80;99.90;;;;;;5107573;28;20390;-86
2022/08/29 02:52:55;;;;;;;5.88;1.30;;;16.70;99.90;;;;;;5091192;28;20039;-88
2022/08/29 02:55:22;;;;;;;5.20;2.05;;;16.70;99.90;;;;;;5073634;28;20065;-87
2022/08/29 02:57:47;;;;;;;5.35;1.58;;;16.70;99.90;;;;;;5090121;28;20039;-87
2022/08/29 03:00:21;;;;;;;2.92;1.27;;;16.70;99.90;;;;;;5107917;28;20119;-86
2022/08/29 03:02:48;;;;;;;6.68;1.45;;;16.60;99.90;;;;;;5090203;28;20062;-86
2022/08/29 03:05:15;;;;;;;6.53;1.80;;;16.60;99.90;;;;;;5108012;28;20130;-86
2022/08/29 03:07:41;;;;;;;6.95;1.50;;;17.80;99.90;;;;;;5108832;28;20039;-86
2022/08/29 03:10:08;;;;;;;5.32;1.52;;;16.70;99.90;;;;;;5109659;28;20463;-87
2022/08/29 03:12:35;;;;;;;6.43;1.77;;;16.60;99.90;;;;;;5090560;28;20082;-86
2022/08/29 03:15:01;;;;;;;5.38;1.52;;;16.60;99.90;;;;;;5108810;28;20451;-86
2022/08/29 03:17:27;;;;;;;6.00;1.67;;;16.60;99.90;;;;;;5090564;28;20509;-86
2022/08/29 03:19:52;;;;;;;8.85;2.13;;;16.60;99.90;;;;;;5073552;28;20040;-87
2022/08/29 03:22:18;;;;;;;9.40;2.00;;;16.60;99.90;;;;;;5090902;28;20100;-86
2022/08/29 03:24:44;;;;;;;8.73;3.00;;;16.70;99.90;;;;;;5106861;28;20552;-86
2022/08/29 03:27:10;;;;;;;5.35;1.48;;;16.60;99.90;;;;;;5107636;28;20041;-86
2022/08/29 03:29:37;;;;;;;5.88;1.27;;;16.60;99.90;;;;;;5089941;28;20131;-86
2022/08/29 03:32:03;;;;;;;8.43;1.73;;;16.60;99.90;;;;;;5090342;28;20087;-88
2022/08/29 03:34:29;;;;;;;7.45;1.50;;;16.60;99.90;;;;;;5090671;28;20047;-86
2022/08/29 03:36:55;;;;;;;5.20;1.55;;;16.60;99.90;;;;;;5090845;28;20032;-86
2022/08/29 03:39:21;;;;;;;10.05;1.63;;;16.60;99.90;;;;;;5112467;28;20047;-86
2022/08/29 03:41:47;;;;;;;7.57;1.35;;;16.60;99.90;;;;;;5079836;28;20140;-87
2022/08/29 03:44:14;;;;;;;5.03;1.98;;;16.60;99.90;;;;;;5064430;28;20075;-87
2022/08/29 03:46:40;;;;;;;4.07;1.05;;;16.50;99.90;;;;;;5095524;28;20051;-86
2022/08/29 03:49:07;;;;;;;10.02;1.08;;;16.50;99.90;;;;;;5110561;28;20042;-86
2022/08/29 03:51:34;;;;;;;8.93;1.30;;;16.50;99.90;;;;;;5092968;28;20046;-87
2022/08/29 03:53:59;;;;;;;9.00;1.35;;;16.50;99.90;;;;;;5107784;28;20044;-86
2022/08/29 03:56:26;;;;;;;5.30;1.35;;;16.90;99.90;;;;;;5091540;28;20138;-86
2022/08/29 03:58:52;;;;;;;9.45;1.35;;;16.50;99.90;;;;;;5073878;28;20047;-87
2022/08/29 04:01:18;;;;;;;5.88;1.30;;;17.40;99.90;;;;;;5090528;28;20086;-86
2022/08/29 04:03:44;;;;;;;4.80;1.30;;;16.50;99.90;;;;;;5089082;28;20047;-87
2022/08/29 04:06:11;;;;;;;5.15;0.93;;;17.20;99.90;;;;;;5073128;28;20039;-87
2022/08/29 04:08:37;;;;;;;7.68;1.15;;;16.50;99.90;;;;;;5088933;28;20490;-89
2022/08/29 04:11:10;;;;;;;4.10;1.35;;;16.50;99.90;;;;;;5072755;28;20501;-87
2022/08/29 04:13:36;;;;;;;4.47;1.33;;;16.50;99.90;;;;;;5092053;28;20044;-86
2022/08/29 04:16:11;;;;;;;8.85;1.58;;;16.40;99.90;;;;;;5074730;28;20504;-86
2022/08/29 04:18:37;;;;;;;9.30;1.17;;;16.50;99.90;;;;;;5109061;28;20039;-86
2022/08/29 04:21:03;;;;;;;6.88;1.30;;;17.20;99.90;;;;;;5109018;28;20044;-87
2022/08/29 04:23:30;;;;;;;7.95;1.13;;;16.50;99.90;;;;;;5091725;28;20039;-85
2022/08/29 04:25:55;;;;;;;12.20;1.65;;;16.40;99.90;;;;;;5072552;28;20079;-85
2022/08/29 04:28:22;;;;;;;14.27;1.70;;;16.50;99.90;;;;;;5089301;28;20075;-87
2022/08/29 04:30:50;;;;;;;6.57;1.45;;;16.50;99.90;;;;;;5106278;28;20047;-85
2022/08/29 04:33:16;;;;;;;9.57;1.40;;;16.50;99.90;;;;;;5089281;28;20082;-88
2022/08/29 04:35:42;;;;;;;10.43;2.00;;;16.50;99.90;;;;;;5057194;28;20039;-89
2022/08/29 04:38:07;;;;;;;5.53;1.60;;;16.50;99.90;;;;;;5091434;28;20039;-92
2022/08/29 04:40:35;;;;;;;6.32;1.35;;;16.50;99.90;;;;;;5107119;28;20039;-87
2022/08/29 04:43:01;;;;;;;5.57;1.40;;;16.50;99.90;;;;;;5088544;28;20482;-89
2022/08/29 04:45:27;;;;;;;14.05;1.73;;;16.50;99.90;;;;;;5106565;28;20115;-89
2022/08/29 04:47:53;;;;;;;10.00;1.38;;;16.60;99.90;;;;;;5072539;28;20031;-88
2022/08/29 04:50:21;;;;;;;10.55;1.55;;;16.60;99.90;;;;;;5071800;28;20047;-87
2022/08/29 04:52:49;;;;;;;5.63;1.38;;;16.60;99.90;;;;;;5106029;28;20047;-89
2022/08/29 04:55:16;;;;;;;9.80;1.35;;;16.60;99.90;;;;;;5105694;28;20040;-88
2022/08/29 04:57:42;;;;;;;5.32;1.98;;;16.60;99.90;;;;;;5089723;28;20173;-88
2022/08/29 05:00:12;;;;;;;6.32;1.92;;;16.60;99.90;;;;;;5088329;28;20579;-88
2022/08/29 05:02:38;;;;;;;2.63;1.58;;;16.60;99.90;;;;;;5106905;28;20157;-91
2022/08/29 05:05:05;;;;;;;8.63;1.58;;;16.70;99.90;;;;;;5105812;28;20071;-89
2022/08/29 05:07:31;;;;;;;15.30;2.25;;;16.70;99.90;;;;;;5105556;28;20036;-89
2022/08/29 05:10:02;;;;;;;5.05;1.88;;;17.30;99.90;;;;;;5072946;28;20380;-90
2022/08/29 05:12:30;;;;;;;9.93;1.70;;;16.70;99.90;;;;;;5106653;28;20100;-90
2022/08/29 05:14:56;;;;;;;7.95;1.77;;;16.80;99.90;;;;;;5089637;28;20390;-88
2022/08/29 05:17:22;;;;;;;6.50;2.35;;;16.80;99.90;;;;;;5071608;28;20379;-86
2022/08/29 05:19:48;;;;;;;5.13;1.38;;;16.80;99.90;;;;;;5108080;28;20043;-87
2022/08/29 05:22:16;;;;;;;5.88;1.70;;;16.80;99.90;;;;;;5092420;28;20451;-87
2022/08/29 05:24:43;;;;;;;4.32;1.38;;;16.80;99.90;;;;;;5109341;28;20404;-86
2022/08/29 05:27:15;;;;;;;6.03;1.48;;;16.80;99.90;;;;;;5109418;28;20563;-85
2022/08/29 05:29:43;;;;;;;5.93;1.30;;;16.90;99.90;;;;;;5092225;28;20517;-86
2022/08/29 05:32:10;;;;;;;4.22;1.50;;;16.90;99.90;;;;;;5093045;28;20047;-85
2022/08/29 05:34:37;;;;;;;10.43;1.70;;;16.90;99.90;;;;;;5092314;28;20043;-86
2022/08/29 05:37:07;;;;;;;4.00;1.48;;;16.90;99.90;;;;;;5110078;28;20052;-88
2022/08/29 05:39:38;;;;;;;6.53;1.38;;;16.90;99.90;;;;;;5093221;28;20079;-89
2022/08/29 05:42:06;;;;;;;7.68;1.90;;;17.00;99.90;;;;;;5091845;28;20452;-87
2022/08/29 05:44:32;;;;;;;7.65;1.35;;;17.00;99.90;;;;;;5109142;28;20043;-88
2022/08/29 05:46:59;;;;;;;5.75;1.50;;;17.00;99.90;;;;;;5075742;28;20095;-90
2022/08/29 05:49:26;;;;;;;9.48;1.45;;;16.80;99.90;;;;;;5109796;28;20433;-85
2022/08/29 05:51:52;;;;;;;4.75;1.33;;;17.00;99.90;;;;;;5092155;28;20047;-88
2022/08/29 05:54:18;;;;;;;8.82;1.42;;;16.10;99.90;;;;;;5078431;28;20467;-90
2022/08/29 05:56:44;;;;;;;6.55;1.45;;;17.00;99.90;;;;;;5110369;28;20040;-88
2022/08/29 05:59:10;;;;;;;3.03;1.30;;;17.10;99.90;;;;;;5093485;28;20509;-88
2022/08/29 06:01:36;;;;;;;5.43;1.83;;;17.10;99.90;;;;;;5093649;28;20075;-88
2022/08/29 06:04:02;;;;;;;5.53;1.40;;;17.20;99.90;;;;;;5092396;28;20075;-90
2022/08/29 06:06:29;;;;;;;5.28;1.23;;;17.20;99.90;;;;;;5093484;28;20043;-89
2022/08/29 06:08:56;;;;;;;8.30;1.67;;;17.20;99.90;;;;;;5075678;28;20383;-88
2022/08/29 06:11:28;;;;;;;5.90;1.50;;;17.30;99.90;;;;;;5092896;28;20044;-89
2022/08/29 06:13:54;;;;;;;6.95;1.48;;;17.80;99.90;;;;;;5109203;28;20038;-90
2022/08/29 06:16:22;;;;;;;10.13;1.83;;;17.40;99.90;;;;;;5109765;28;20443;-89
2022/08/29 06:18:49;;;;;;;9.70;1.40;;;17.40;99.90;;;;;;5092662;28;20043;-89
2022/08/29 06:21:15;;;;;;;6.22;1.73;;;17.50;99.90;;;;;;5109394;28;20130;-90
2022/08/29 06:23:42;;;;;;;8.02;1.50;;;17.60;99.90;;;;;;5109529;28;20036;-88
2022/08/29 06:26:09;;;;;;;5.50;1.63;;;17.70;99.90;;;;;;5108841;28;20039;-90
2022/08/29 06:28:37;;;;;;;4.50;1.17;;;18.20;99.90;;;;;;5059125;28;20044;-91
2022/08/29 06:31:08;;;;;;;7.28;1.45;;;17.80;99.90;;;;;;5090383;28;20040;-89
2022/08/29 06:33:37;;;;;;;8.98;1.73;;;17.90;99.90;;;;;;5092241;28;20512;-89
2022/08/29 06:36:07;;;;;;;10.55;1.60;;;17.90;99.90;;;;;;5075189;28;20545;-89
2022/08/29 06:38:34;;;;;;;7.70;1.90;;;18.00;99.90;;;;;;5091634;28;20044;-89
2022/08/29 06:41:08;;;;;;;8.18;2.40;;;18.10;99.90;;;;;;5109131;28;20170;-88
2022/08/29 06:43:34;;;;;;;11.50;1.43;;;18.30;99.90;;;;;;5090702;28;20470;-89
2022/08/29 06:46:00;;;;;;;7.30;2.15;;;18.40;99.90;;;;;;5058299;28;20290;-87
2022/08/29 06:48:26;;;;;;;15.60;3.15;;;18.60;99.90;;;;;;5108133;28;20044;-88
2022/08/29 06:50:51;;;;;;;11.30;1.98;;;18.70;99.90;;;;;;5092635;28;20130;-94
2022/08/29 06:53:19;;;;;;;13.57;2.47;;;18.80;99.90;;;;;;5075350;28;20513;-93
2022/08/29 06:55:45;;;;;;;7.97;2.08;;;18.90;99.90;;;;;;5075539;28;20048;-93
2022/08/29 06:58:11;;;;;;;13.77;2.38;;;19.00;99.90;;;;;;5092351;28;20512;-94
2022/08/29 07:00:41;;;;;;;9.23;2.45;;;19.20;99.90;;;;;;5091819;28;20054;-94
2022/08/29 07:03:08;;;;;;;16.05;2.47;;;19.30;99.90;;;;;;5092661;28;20043;-93
2022/08/29 07:05:34;;;;;;;8.88;1.98;;;19.40;99.90;;;;;;5075114;28;20035;-96
2022/08/29 07:08:00;;;;;;;12.10;2.30;;;19.60;99.90;;;;;;5092775;28;20108;-95
2022/08/29 07:10:26;;;;;;;7.82;2.13;;;19.70;99.90;;;;;;5058241;28;20046;-93
2022/08/29 07:12:53;;;;;;;9.85;1.85;;;19.80;99.90;;;;;;5075552;28;20126;-94
2022/08/29 07:15:20;;;;;;;7.72;2.13;;;19.90;99.90;;;;;;5091845;28;20079;-94
2022/08/29 07:17:46;;;;;;;7.95;2.47;;;19.90;99.90;;;;;;5091509;28;20042;-94
2022/08/29 07:20:13;;;;;;;7.47;2.97;;;19.70;99.90;;;;;;5092143;28;20066;-94
2022/08/29 07:22:44;;;;;;;9.77;2.67;;;19.70;99.90;;;;;;5074574;28;20050;-93
2022/08/29 07:25:10;;;;;;;6.00;2.35;;;19.70;99.90;;;;;;5092007;28;20054;-93
2022/08/29 07:27:39;;;;;;;10.15;2.28;;;19.60;99.90;;;;;;5073970;28;20039;-95
2022/08/29 07:30:05;;;;;;;5.50;1.80;;;19.60;99.90;;;;;;5073967;28;20040;-92
2022/08/29 07:32:31;;;;;;;10.43;2.22;;;19.60;99.90;;;;;;5074137;28;20066;-95
2022/08/29 07:34:56;;;;;;;7.30;2.03;;;19.70;99.90;;;;;;5057336;28;20604;-92
2022/08/29 07:37:23;;;;;;;11.88;2.22;;;19.80;99.90;;;;;;5057855;28;20050;-93
2022/08/29 07:39:49;;;;;;;9.65;2.42;;;19.80;99.90;;;;;;5090375;28;20134;-94
2022/08/29 07:42:14;;;;;;;9.82;2.53;;;19.80;99.90;;;;;;5056959;28;20135;-93
2022/08/29 07:44:40;;;;;;;9.13;2.70;;;19.80;99.90;;;;;;5058747;28;20047;-93
2022/08/29 07:47:06;;;;;;;14.07;2.25;;;19.80;99.90;;;;;;5059336;28;20134;-94
2022/08/29 07:49:32;;;;;;;8.68;2.35;;;19.80;99.90;;;;;;5059470;28;20043;-93
2022/08/29 07:51:58;;;;;;;11.05;2.92;;;19.70;99.90;;;;;;5060902;28;20142;-94
2022/08/29 07:54:24;;;;;;;10.35;2.90;;;19.70;99.90;;;;;;5097473;28;20043;-96
2022/08/29 07:56:51;;;;;;;10.60;2.20;;;19.70;99.90;;;;;;5090118;28;20040;-95
2022/08/29 07:59:19;;;;;;;12.38;3.38;;;19.70;99.90;;;;;;5090170;28;20036;-93
2022/08/29 08:01:47;;;;;;;10.63;2.40;;;19.70;99.90;;;;;;5106985;28;20098;-94
2022/08/29 08:04:13;;;;;;;13.73;2.65;;;19.80;99.90;;;;;;5086547;28;20063;-93
2022/08/29 08:06:41;;;;;;;9.75;2.65;;;19.90;99.90;;;;;;5097105;28;20048;-93
2022/08/29 08:09:08;;;;;;;10.93;2.70;;;19.90;99.90;;;;;;5078219;28;20111;-95
2022/08/29 08:11:35;;;;;;;12.73;2.63;;;20.00;99.90;;;;;;5090657;28;20096;-95
2022/08/29 08:14:05;;;;;;;12.15;3.33;;;20.10;99.90;;;;;;5090628;28;20046;-94
2022/08/29 08:16:31;;;;;;;8.75;2.63;;;20.10;99.90;;;;;;5089636;28;20474;-94
2022/08/29 08:18:57;;;;;;;15.73;3.55;;;20.10;99.90;;;;;;5074723;28;20098;-94
2022/08/29 08:21:25;;;;;;;7.78;2.40;;;20.10;99.90;;;;;;5093528;28;20035;-90
2022/08/29 08:23:51;;;;;;;12.75;3.15;;;20.00;99.90;;;;;;5097548;28;20050;-96
2022/08/29 08:26:18;;;;;;;12.52;2.70;;;19.90;99.90;;;;;;5074742;28;20039;-92
2022/08/29 08:28:44;;;;;;;13.77;3.15;;;19.90;99.90;;;;;;5090181;28;20043;-94
2022/08/29 08:31:12;;;;;;;15.10;3.60;;;19.90;99.90;;;;;;5090438;28;20060;-95
2022/08/29 08:33:38;;;;;;;10.13;3.20;;;19.90;99.90;;;;;;5089940;28;20375;-95
2022/08/29 08:51:34;;;;;;;16.58;2.80;;;19.80;99.90;;;;;;5128595;27;20058;-95
2022/08/29 08:54:04;;;;;;;13.93;3.20;;;19.80;99.90;;;;;;5073889;28;20481;-88
2022/08/29 08:56:45;;;;;;;17.77;2.97;;;20.00;99.90;;;;;;5077149;28;20054;-93
2022/08/29 08:59:15;;;;;;;11.40;3.53;;;20.10;99.90;;;;;;5093258;28;20050;-91
2022/08/29 09:02:07;;;;;;;14.35;3.28;;;20.20;99.90;;;;;;5075947;28;20039;-90
2022/08/29 09:04:36;;;;;;;12.95;2.97;;;20.30;99.90;;;;;;5076779;28;20543;-91
2022/08/29 09:07:14;;;;;;;10.43;2.78;;;20.30;99.90;;;;;;5074288;28;20082;-89
2022/08/29 09:10:06;;;;;;;14.38;2.35;;;20.40;99.90;;;;;;5075136;28;20044;-90
2022/08/29 09:12:37;;;;;;;8.63;2.55;;;20.60;99.90;;;;;;5116019;28;20052;-95
2022/08/29 09:15:11;;;;;;;13.20;2.87;;;21.00;99.90;;;;;;5077312;28;20167;-96
2022/08/29 09:17:46;;;;;;;10.35;1.92;;;21.10;99.90;;;;;;5079099;28;20153;-96
2022/08/29 09:20:27;;;;;;;8.93;2.70;;;21.40;99.90;;;;;;5076448;28;20259;-96
2022/08/29 09:23:23;;;;;;;7.50;2.45;;;21.60;99.90;;;;;;5077374;28;20050;-96
2022/08/29 09:25:50;;;;;;;5.55;2.20;;;21.70;99.90;;;;;;5077144;28;20071;-94
2022/08/29 09:28:16;;;;;;;11.65;2.45;;;21.80;99.90;;;;;;5078378;28;20050;-93
2022/08/29 09:30:44;;;;;;;6.63;2.75;;;21.90;99.90;;;;;;5064545;28;20390;-95
2022/08/29 09:33:13;;;;;;;7.70;2.08;;;21.80;99.90;;;;;;5084505;28;20047;-96
2022/08/29 09:35:42;;;;;;;10.75;1.85;;;21.80;99.90;;;;;;5103933;28;20214;-95
2022/08/29 09:38:28;;;;;;;8.00;2.13;;;21.70;99.90;;;;;;5089405;28;20043;-95
2022/08/29 09:41:37;;;;;;;5.20;1.77;;;21.60;99.90;;;;;;5078125;28;20050;-96
2022/08/29 09:44:32;;;;;;;9.18;2.35;;;21.50;99.90;;;;;;5116462;28;20050;-95
2022/08/29 09:47:09;;;;;;;;;;;21.40;99.90;;;;;;5101620;28;20057;-96
2022/08/29 09:49:38;;;;;;;6.45;2.17;;;21.40;99.90;;;;;;5119427;28;19919;-94
2022/08/29 09:52:22;;;;;;;6.65;2.30;;;22.70;99.90;;;;;;5099567;28;20067;-96
2022/08/29 09:54:57;;;;;;;8.05;2.05;;;21.50;99.90;;;;;;5117018;28;20075;-96
2022/08/29 09:57:30;;;;;;;4.97;1.95;;;20.90;99.90;;;;;;5093126;28;20054;-96
2022/08/29 10:00:24;;;;;;;8.60;2.00;;;21.60;99.90;;;;;;5091878;28;20441;-95
2022/08/29 10:02:57;;;;;;;6.38;2.53;;;20.80;99.90;;;;;;5069257;28;20048;-95
2022/08/29 10:05:28;;;;;;;8.50;2.00;;;20.70;99.90;;;;;;5064823;28;20154;-96
2022/08/29 10:08:11;;;;;;;9.52;2.28;;;21.50;99.90;;;;;;5086351;28;20062;-95
2022/08/29 10:10:54;;;;;;;10.95;2.28;;;21.60;99.90;;;;;;5062838;28;20083;-96
2022/08/29 10:13:29;;;;;;;6.38;2.25;;;21.60;99.90;;;;;;5071070;28;20060;-96
2022/08/29 10:16:07;;;;;;;6.47;2.03;;;21.70;99.90;;;;;;5069417;28;20044;-96
2022/08/29 10:18:53;;;;;;;8.63;2.38;;;21.70;99.90;;;;;;5087132;28;20052;-96
2022/08/29 10:21:58;;;;;;;8.65;2.88;;;21.80;99.90;;;;;;5073457;28;20040;-96
2022/08/29 10:24:41;;;;;;;10.68;2.25;;;21.80;99.90;;;;;;5081382;28;20047;-96
2022/08/29 10:27:25;;;;;;;11.95;2.75;;;22.10;99.90;;;;;;5104955;28;20054;-96
2022/08/29 10:30:22;;;;;;;13.88;2.58;;;22.20;99.90;;;;;;5127022;28;20047;-95
2022/08/29 10:33:03;;;;;;;9.75;2.25;;;22.30;99.90;;;;;;5095540;28;20046;-90
2022/08/29 10:35:34;;;;;;;9.95;2.38;;;22.40;99.90;;;;;;5074724;28;20048;-92
2022/08/29 10:38:09;;;;;;;13.40;3.25;;;22.60;99.90;;;;;;5073925;28;20382;-93
2022/08/29 10:40:47;;;;;;;12.30;2.28;;;22.70;99.90;;;;;;5075290;28;20036;-92
2022/08/29 10:43:35;;;;;;;10.02;2.25;;;23.00;99.90;;;;;;5074570;28;20047;-94
2022/08/29 10:46:33;;;;;;;7.85;2.55;;;23.30;99.90;;;;;;5083512;28;20054;-93
2022/08/29 10:49:16;;;;;;;6.75;1.83;;;23.50;99.90;;;;;;5091845;28;20048;-90
2022/08/29 10:52:17;;;;;;;6.82;1.73;;;23.40;99.90;;;;;;5087598;27;20048;-95
2022/08/29 10:54:49;;;;;;;5.68;1.80;;;23.30;99.90;;;;;;5095820;27;20135;-95
2022/08/29 10:57:42;;;;;;;11.07;2.05;;;23.10;99.90;;;;;;5105794;27;20047;-93
2022/08/29 11:00:12;;;;;;;9.38;1.88;;;23.00;99.90;;;;;;5115812;27;20054;-96
2022/08/29 11:02:45;;;;;;;9.52;2.17;;;22.80;99.90;;;;;;5095274;27;20378;-87
2022/08/29 11:05:25;;;;;;;8.65;2.20;;;23.10;99.90;;;;;;5093506;27;20340;-88
2022/08/29 11:08:13;;;;;;;10.55;2.00;;;22.40;99.90;;;;;;5110814;27;20039;-89
2022/08/29 11:10:48;;;;;;;9.18;2.28;;;22.50;99.90;;;;;;5092973;27;20047;-88
2022/08/29 11:13:20;;;;;;;6.95;2.03;;;22.40;99.90;;;;;;5110044;27;20054;-89
2022/08/29 11:16:07;;;;;;;5.95;1.50;;;22.30;99.90;;;;;;5093535;27;20068;-88
2022/08/29 11:18:59;;;;;;;6.95;2.00;;;22.20;99.90;;;;;;5091726;27;20497;-88
2022/08/29 11:21:40;;;;;;;4.57;1.65;;;22.00;99.90;;;;;;5110372;27;20051;-89
2022/08/29 11:24:06;;;;;;;6.50;1.80;;;21.90;99.90;;;;;;5109969;27;20379;-89
2022/08/29 11:26:38;;;;;;;5.40;2.20;;;21.90;99.90;;;;;;5109740;27;20046;-89
2022/08/29 11:29:19;;;;;;;6.72;1.90;;;21.90;99.90;;;;;;5093556;27;20072;-87
2022/08/29 11:31:54;;;;;;;9.15;2.17;;;21.80;99.90;;;;;;5091895;27;20497;-95
2022/08/29 11:34:32;;;;;;;10.02;2.42;;;21.90;99.90;;;;;;5111163;27;20393;-92
2022/08/29 11:37:21;;;;;;;4.60;1.90;;;21.90;99.90;;;;;;5111028;27;20059;-92
2022/08/29 11:40:05;;;;;;;9.07;2.00;;;21.80;99.90;;;;;;5110073;27;20072;-91
2022/08/29 11:42:34;;;;;;;6.15;1.65;;;21.90;99.90;;;;;;5093981;27;20078;-92
2022/08/29 11:45:03;;;;;;;6.85;2.20;;;21.90;99.90;;;;;;5092989;27;20092;-92
2022/08/29 11:47:44;;;;;;;5.63;1.95;;;22.00;99.90;;;;;;5076960;27;20096;-92
2022/08/29 11:50:15;;;;;;;6.78;1.60;;;22.00;99.90;;;;;;5093993;27;20051;-93
2022/08/29 11:53:00;;;;;;;5.00;1.45;;;22.00;99.90;;;;;;5092969;27;20051;-93
2022/08/29 11:55:35;;;;;;;6.63;1.70;;;22.00;99.90;;;;;;5094132;27;20054;-92
2022/08/29 11:58:15;;;;;;;6.88;1.70;;;21.90;99.90;;;;;;5092649;27;20500;-93
2022/08/29 12:00:49;;;;;;;3.80;1.60;;;21.90;99.90;;;;;;5093599;27;20039;-93
2022/08/29 12:03:34;;;;;;;8.77;1.92;;;22.00;99.90;;;;;;5110684;27;20039;-94
2022/08/29 12:06:31;;;;;;;4.10;1.77;;;22.00;99.90;;;;;;5093047;27;20103;-92
2022/08/29 12:09:03;;;;;;;3.75;1.58;;;22.10;99.90;;;;;;5094204;27;20046;-93
2022/08/29 12:11:48;;;;;;;;;;;22.20;99.90;;;;;;5093785;27;20043;-91
2022/08/29 12:14:35;;;;;;;4.97;1.40;;;22.30;99.90;;;;;;5091607;27;20369;-85
2022/08/29 12:17:04;;;;;;;7.25;1.65;;;22.40;99.90;;;;;;5109081;27;20051;-86
2022/08/29 12:19:55;;;;;;;3.05;1.25;;;22.40;99.90;;;;;;5090591;27;20351;-86
2022/08/29 12:22:44;;;;;;;6.68;1.20;;;22.50;99.90;;;;;;5108235;27;20050;-86
2022/08/29 12:25:55;;;;;;;6.20;1.58;;;22.40;99.90;;;;;;5091981;27;20039;-85
2022/08/29 12:28:20;;;;;;;4.60;1.25;;;22.40;99.90;;;;;;4989801;28;20084;-86
2022/08/29 12:30:47;;;;;;;6.55;1.60;;;22.30;99.90;;;;;;5087572;27;20075;-86
2022/08/29 12:33:28;;;;;;;4.00;1.30;;;22.40;99.90;;;;;;5108251;28;20054;-85
2022/08/29 12:36:19;;;;;;;5.60;1.50;;;22.40;99.90;;;;;;5107462;28;20039;-86
2022/08/29 12:39:02;;;;;;;6.72;2.15;;;22.40;99.90;;;;;;5109104;28;20172;-86
2022/08/29 12:41:50;;;;;;;4.75;1.35;;;22.30;99.90;;;;;;5091267;28;20050;-87
2022/08/29 12:44:21;;;;;;;4.28;1.30;;;22.30;99.90;;;;;;5107975;28;20100;-86
2022/08/29 12:46:52;;;;;;;5.93;1.95;;;22.30;99.90;;;;;;5109564;28;20043;-86
2022/08/29 12:49:40;;;;;;;7.40;1.80;;;22.10;99.90;;;;;;5090270;28;20044;-86
2022/08/29 12:52:19;;;;;;;4.13;1.33;;;22.20;99.90;;;;;;5066017;28;20060;-86
2022/08/29 12:54:45;;;;;;;4.18;1.25;;;22.10;99.90;;;;;;5087613;28;20404;-84
2022/08/29 12:57:22;;;;;;;7.18;1.33;;;22.10;99.90;;;;;;5088944;28;20036;-93
2022/08/29 12:59:51;;;;;;;4.65;1.98;;;22.10;99.90;;;;;;5073550;28;20490;-88
2022/08/29 13:02:29;;;;;;;5.30;1.50;;;22.10;99.90;;;;;;5070929;28;20040;-90
2022/08/29 13:04:56;;;;;;;7.72;1.50;;;22.10;99.90;;;;;;5089312;28;20055;-90
2022/08/29 13:07:23;;;;;;;3.38;1.25;;;22.20;99.90;;;;;;5055058;28;20042;-90
2022/08/29 13:09:52;;;;;;;5.50;1.13;;;22.20;99.90;;;;;;5073597;28;20050;-92
2022/08/29 13:12:28;;;;;;;2.78;1.05;;;22.30;99.90;;;;;;5090290;28;20040;-89
2022/08/29 13:15:02;;;;;;;5.50;1.45;;;22.40;99.90;;;;;;5090593;28;20108;-90
2022/08/29 13:17:40;;;;;;;9.20;2.50;;;22.60;99.90;;;;;;5073350;28;20079;-93
2022/08/29 13:20:37;;;;;;;3.80;1.38;;;22.60;99.90;;;;;;5088162;28;20253;-91
2022/08/29 13:23:15;;;;;;;5.22;1.30;;;22.80;99.90;;;;;;5072328;28;20127;-92